sensor_id;sensor_type;location;lat;lon;timestamp;P1;durP1;ratioP1;P2;durP2;ratioP2
4148;SDS011;2088;51.032;7.082;2023-02-03T00:02:18;13.80;;;4.57;;
4148;SDS011;2088;51.032;7.082;2023-02-03T00:04:45;8.77;;;4.33;;
4148;SDS011;2088;51.032;7.082;2023-02-03T00:07:12;9.50;;;4.73;;
4148;SDS011;2088;51.032;7.082;2023-02-03T00:09:39;10.33;;;4.43;;
4148;SDS011;2088;51.032;7.082;2023-02-03T00:12:07;6.13;;;4.80;;
4148;SDS011;2088;51.032;7.082;2023-02-03T00:14:35;11.63;;;4.83;;
4148;SDS011;2088;51.032;7.082;2023-02-03T00:17:03;5.03;;;4.03;;
4148;SDS011;2088;51.032;7.082;2023-02-03T00:19:30;8.47;;;3.40;;
4148;SDS011;2088;51.032;7.082;2023-02-03T00:21:57;6.20;;;3.83;;
4148;SDS011;2088;51.032;7.082;2023-02-03T00:24:24;10.97;;;4.60;;
4148;SDS011;2088;51.032;7.082;2023-02-03T00:26:51;9.07;;;4.23;;
4148;SDS011;2088;51.032;7.082;2023-02-03T00:29:18;5.50;;;4.07;;
4148;SDS011;2088;51.032;7.082;2023-02-03T00:31:51;6.43;;;5.17;;
4148;SDS011;2088;51.032;7.082;2023-02-03T00:34:18;10.50;;;3.93;;
4148;SDS011;2088;51.032;7.082;2023-02-03T00:36:45;8.60;;;4.37;;
4148;SDS011;2088;51.032;7.082;2023-02-03T00:39:13;7.10;;;3.87;;
4148;SDS011;2088;51.032;7.082;2023-02-03T00:41:40;39.47;;;4.23;;
4148;SDS011;2088;51.032;7.082;2023-02-03T00:44:07;8.50;;;3.47;;
4148;SDS011;2088;51.032;7.082;2023-02-03T00:46:34;8.60;;;3.43;;
4148;SDS011;2088;51.032;7.082;2023-02-03T00:49:03;18.77;;;4.23;;
4148;SDS011;2088;51.032;7.082;2023-02-03T00:51:30;6.87;;;3.60;;
4148;SDS011;2088;51.032;7.082;2023-02-03T00:53:57;6.97;;;3.63;;
4148;SDS011;2088;51.032;7.082;2023-02-03T00:56:24;6.00;;;3.70;;
4148;SDS011;2088;51.032;7.082;2023-02-03T00:58:51;6.23;;;4.20;;
4148;SDS011;2088;51.032;7.082;2023-02-03T01:01:18;11.80;;;4.33;;
4148;SDS011;2088;51.032;7.082;2023-02-03T01:03:45;8.70;;;4.07;;
4148;SDS011;2088;51.032;7.082;2023-02-03T01:06:14;8.73;;;3.30;;
4148;SDS011;2088;51.032;7.082;2023-02-03T01:08:42;5.53;;;3.50;;
4148;SDS011;2088;51.032;7.082;2023-02-03T01:11:10;15.17;;;3.33;;
4148;SDS011;2088;51.032;7.082;2023-02-03T01:13:37;11.03;;;3.57;;
4148;SDS011;2088;51.032;7.082;2023-02-03T01:16:06;6.43;;;3.70;;
4148;SDS011;2088;51.032;7.082;2023-02-03T01:18:33;15.00;;;3.97;;
4148;SDS011;2088;51.032;7.082;2023-02-03T01:21:03;7.70;;;3.40;;
4148;SDS011;2088;51.032;7.082;2023-02-03T01:23:32;8.03;;;3.53;;
4148;SDS011;2088;51.032;7.082;2023-02-03T01:26:00;14.13;;;3.63;;
4148;SDS011;2088;51.032;7.082;2023-02-03T01:28:28;9.60;;;3.20;;
4148;SDS011;2088;51.032;7.082;2023-02-03T01:30:55;7.20;;;3.30;;
4148;SDS011;2088;51.032;7.082;2023-02-03T01:33:22;3.83;;;2.70;;
4148;SDS011;2088;51.032;7.082;2023-02-03T01:35:49;10.70;;;4.00;;
4148;SDS011;2088;51.032;7.082;2023-02-03T01:38:16;12.33;;;2.90;;
4148;SDS011;2088;51.032;7.082;2023-02-03T01:40:44;5.20;;;3.20;;
4148;SDS011;2088;51.032;7.082;2023-02-03T01:43:26;4.67;;;2.50;;
4148;SDS011;2088;51.032;7.082;2023-02-03T01:45:54;13.80;;;3.20;;
4148;SDS011;2088;51.032;7.082;2023-02-03T01:48:21;9.43;;;3.73;;
4148;SDS011;2088;51.032;7.082;2023-02-03T01:50:48;10.70;;;3.93;;
4148;SDS011;2088;51.032;7.082;2023-02-03T01:53:15;6.17;;;3.00;;
4148;SDS011;2088;51.032;7.082;2023-02-03T01:55:43;7.23;;;4.60;;
4148;SDS011;2088;51.032;7.082;2023-02-03T01:58:14;9.50;;;4.17;;
4148;SDS011;2088;51.032;7.082;2023-02-03T02:00:44;7.00;;;2.77;;
4148;SDS011;2088;51.032;7.082;2023-02-03T02:03:11;5.63;;;2.90;;
4148;SDS011;2088;51.032;7.082;2023-02-03T02:05:40;10.63;;;3.20;;
4148;SDS011;2088;51.032;7.082;2023-02-03T02:08:09;5.20;;;3.07;;
4148;SDS011;2088;51.032;7.082;2023-02-03T02:10:36;4.30;;;3.27;;
4148;SDS011;2088;51.032;7.082;2023-02-03T02:13:04;7.43;;;3.70;;
4148;SDS011;2088;51.032;7.082;2023-02-03T02:15:35;7.00;;;3.27;;
4148;SDS011;2088;51.032;7.082;2023-02-03T02:18:06;6.70;;;3.53;;
4148;SDS011;2088;51.032;7.082;2023-02-03T02:20:49;8.87;;;3.53;;
4148;SDS011;2088;51.032;7.082;2023-02-03T02:23:29;7.10;;;2.80;;
4148;SDS011;2088;51.032;7.082;2023-02-03T02:26:14;5.23;;;2.30;;
4148;SDS011;2088;51.032;7.082;2023-02-03T02:29:03;5.40;;;2.90;;
4148;SDS011;2088;51.032;7.082;2023-02-03T02:31:42;9.57;;;2.57;;
4148;SDS011;2088;51.032;7.082;2023-02-03T02:34:12;11.23;;;3.97;;
4148;SDS011;2088;51.032;7.082;2023-02-03T02:36:42;11.33;;;3.17;;
4148;SDS011;2088;51.032;7.082;2023-02-03T02:39:17;8.00;;;3.43;;
4148;SDS011;2088;51.032;7.082;2023-02-03T02:41:48;6.10;;;3.00;;
4148;SDS011;2088;51.032;7.082;2023-02-03T02:44:20;5.77;;;3.40;;
4148;SDS011;2088;51.032;7.082;2023-02-03T02:46:51;6.23;;;2.93;;
4148;SDS011;2088;51.032;7.082;2023-02-03T02:49:19;10.77;;;3.30;;
4148;SDS011;2088;51.032;7.082;2023-02-03T02:51:47;6.30;;;2.23;;
4148;SDS011;2088;51.032;7.082;2023-02-03T02:54:16;7.30;;;2.67;;
4148;SDS011;2088;51.032;7.082;2023-02-03T02:56:44;8.13;;;2.30;;
4148;SDS011;2088;51.032;7.082;2023-02-03T02:59:14;8.90;;;3.03;;
4148;SDS011;2088;51.032;7.082;2023-02-03T03:01:41;7.57;;;2.97;;
4148;SDS011;2088;51.032;7.082;2023-02-03T03:04:10;9.13;;;3.40;;
4148;SDS011;2088;51.032;7.082;2023-02-03T03:06:38;6.10;;;2.37;;
4148;SDS011;2088;51.032;7.082;2023-02-03T03:09:08;6.17;;;2.90;;
4148;SDS011;2088;51.032;7.082;2023-02-03T03:11:38;5.43;;;2.63;;
4148;SDS011;2088;51.032;7.082;2023-02-03T03:14:07;7.83;;;2.67;;
4148;SDS011;2088;51.032;7.082;2023-02-03T03:16:36;6.17;;;2.40;;
4148;SDS011;2088;51.032;7.082;2023-02-03T03:19:05;5.27;;;3.10;;
4148;SDS011;2088;51.032;7.082;2023-02-03T03:21:35;9.23;;;3.40;;
4148;SDS011;2088;51.032;7.082;2023-02-03T03:24:04;12.43;;;2.37;;
4148;SDS011;2088;51.032;7.082;2023-02-03T03:26:33;6.67;;;2.90;;
4148;SDS011;2088;51.032;7.082;2023-02-03T03:29:07;8.63;;;3.10;;
4148;SDS011;2088;51.032;7.082;2023-02-03T03:31:36;12.53;;;3.20;;
4148;SDS011;2088;51.032;7.082;2023-02-03T03:34:04;5.63;;;2.73;;
4148;SDS011;2088;51.032;7.082;2023-02-03T03:36:36;6.93;;;3.23;;
4148;SDS011;2088;51.032;7.082;2023-02-03T03:39:08;11.00;;;4.03;;
4148;SDS011;2088;51.032;7.082;2023-02-03T03:41:38;10.33;;;3.20;;
4148;SDS011;2088;51.032;7.082;2023-02-03T03:44:08;5.57;;;3.63;;
4148;SDS011;2088;51.032;7.082;2023-02-03T03:46:39;6.77;;;2.83;;
4148;SDS011;2088;51.032;7.082;2023-02-03T03:49:08;11.40;;;3.00;;
4148;SDS011;2088;51.032;7.082;2023-02-03T03:51:37;6.33;;;2.83;;
4148;SDS011;2088;51.032;7.082;2023-02-03T03:54:06;8.63;;;3.40;;
4148;SDS011;2088;51.032;7.082;2023-02-03T03:56:36;7.53;;;3.07;;
4148;SDS011;2088;51.032;7.082;2023-02-03T03:59:05;8.47;;;3.30;;
4148;SDS011;2088;51.032;7.082;2023-02-03T04:01:34;11.93;;;3.70;;
4148;SDS011;2088;51.032;7.082;2023-02-03T04:04:02;7.03;;;3.60;;
4148;SDS011;2088;51.032;7.082;2023-02-03T04:06:31;7.23;;;3.33;;
4148;SDS011;2088;51.032;7.082;2023-02-03T04:08:58;20.63;;;4.13;;
4148;SDS011;2088;51.032;7.082;2023-02-03T04:11:27;6.50;;;2.70;;
4148;SDS011;2088;51.032;7.082;2023-02-03T04:14:13;3.97;;;2.67;;
4148;SDS011;2088;51.032;7.082;2023-02-03T04:16:40;6.23;;;3.43;;
4148;SDS011;2088;51.032;7.082;2023-02-03T04:19:07;8.93;;;2.90;;
4148;SDS011;2088;51.032;7.082;2023-02-03T04:21:34;7.90;;;2.87;;
4148;SDS011;2088;51.032;7.082;2023-02-03T04:24:01;11.83;;;3.23;;
4148;SDS011;2088;51.032;7.082;2023-02-03T04:26:28;5.77;;;3.07;;
4148;SDS011;2088;51.032;7.082;2023-02-03T04:28:55;7.73;;;2.90;;
4148;SDS011;2088;51.032;7.082;2023-02-03T04:31:23;12.07;;;2.73;;
4148;SDS011;2088;51.032;7.082;2023-02-03T04:33:50;4.00;;;2.30;;
4148;SDS011;2088;51.032;7.082;2023-02-03T04:36:17;9.20;;;4.43;;
4148;SDS011;2088;51.032;7.082;2023-02-03T04:38:44;5.83;;;2.60;;
4148;SDS011;2088;51.032;7.082;2023-02-03T04:41:12;16.60;;;2.30;;
4148;SDS011;2088;51.032;7.082;2023-02-03T04:43:39;7.83;;;3.03;;
4148;SDS011;2088;51.032;7.082;2023-02-03T04:46:06;6.70;;;2.30;;
4148;SDS011;2088;51.032;7.082;2023-02-03T04:48:35;2.60;;;1.80;;
4148;SDS011;2088;51.032;7.082;2023-02-03T04:51:03;2.33;;;2.13;;
4148;SDS011;2088;51.032;7.082;2023-02-03T04:53:31;3.10;;;2.10;;
4148;SDS011;2088;51.032;7.082;2023-02-03T04:55:58;4.73;;;2.50;;
4148;SDS011;2088;51.032;7.082;2023-02-03T04:58:25;7.17;;;2.27;;
4148;SDS011;2088;51.032;7.082;2023-02-03T05:00:53;5.67;;;2.20;;
4148;SDS011;2088;51.032;7.082;2023-02-03T05:03:20;3.70;;;2.27;;
4148;SDS011;2088;51.032;7.082;2023-02-03T05:05:49;4.20;;;2.13;;
4148;SDS011;2088;51.032;7.082;2023-02-03T05:08:16;4.97;;;3.07;;
4148;SDS011;2088;51.032;7.082;2023-02-03T05:10:43;5.50;;;1.97;;
4148;SDS011;2088;51.032;7.082;2023-02-03T05:13:10;7.23;;;2.97;;
4148;SDS011;2088;51.032;7.082;2023-02-03T05:15:37;8.07;;;2.97;;
4148;SDS011;2088;51.032;7.082;2023-02-03T05:18:04;8.23;;;3.70;;
4148;SDS011;2088;51.032;7.082;2023-02-03T05:20:31;10.20;;;2.70;;
4148;SDS011;2088;51.032;7.082;2023-02-03T05:23:00;8.37;;;2.67;;
4148;SDS011;2088;51.032;7.082;2023-02-03T05:25:27;3.37;;;2.07;;
4148;SDS011;2088;51.032;7.082;2023-02-03T05:27:54;6.63;;;2.50;;
4148;SDS011;2088;51.032;7.082;2023-02-03T05:30:21;6.10;;;3.07;;
4148;SDS011;2088;51.032;7.082;2023-02-03T05:32:48;6.77;;;2.30;;
4148;SDS011;2088;51.032;7.082;2023-02-03T05:35:15;7.00;;;2.70;;
4148;SDS011;2088;51.032;7.082;2023-02-03T05:37:43;9.40;;;2.10;;
4148;SDS011;2088;51.032;7.082;2023-02-03T05:40:12;8.60;;;2.40;;
4148;SDS011;2088;51.032;7.082;2023-02-03T05:42:57;3.13;;;2.00;;
4148;SDS011;2088;51.032;7.082;2023-02-03T05:45:24;11.50;;;3.50;;
4148;SDS011;2088;51.032;7.082;2023-02-03T05:47:51;3.83;;;1.80;;
4148;SDS011;2088;51.032;7.082;2023-02-03T05:50:18;3.50;;;1.93;;
4148;SDS011;2088;51.032;7.082;2023-02-03T05:52:46;4.60;;;2.40;;
4148;SDS011;2088;51.032;7.082;2023-02-03T05:55:15;14.53;;;2.40;;
4148;SDS011;2088;51.032;7.082;2023-02-03T05:57:42;10.80;;;2.30;;
4148;SDS011;2088;51.032;7.082;2023-02-03T06:00:10;6.43;;;1.80;;
4148;SDS011;2088;51.032;7.082;2023-02-03T06:02:37;9.30;;;1.93;;
4148;SDS011;2088;51.032;7.082;2023-02-03T06:05:04;3.23;;;1.87;;
4148;SDS011;2088;51.032;7.082;2023-02-03T06:07:31;7.00;;;2.40;;
4148;SDS011;2088;51.032;7.082;2023-02-03T06:09:58;7.00;;;1.70;;
4148;SDS011;2088;51.032;7.082;2023-02-03T06:12:27;6.80;;;2.00;;
4148;SDS011;2088;51.032;7.082;2023-02-03T06:14:54;6.50;;;1.80;;
4148;SDS011;2088;51.032;7.082;2023-02-03T06:17:21;2.33;;;1.23;;
4148;SDS011;2088;51.032;7.082;2023-02-03T06:19:48;8.73;;;1.50;;
4148;SDS011;2088;51.032;7.082;2023-02-03T06:22:15;2.53;;;1.30;;
4148;SDS011;2088;51.032;7.082;2023-02-03T06:24:42;4.10;;;1.60;;
4148;SDS011;2088;51.032;7.082;2023-02-03T06:27:10;3.70;;;1.50;;
4148;SDS011;2088;51.032;7.082;2023-02-03T06:29:38;6.43;;;1.63;;
4148;SDS011;2088;51.032;7.082;2023-02-03T06:32:05;4.43;;;1.57;;
4148;SDS011;2088;51.032;7.082;2023-02-03T06:34:32;6.37;;;1.80;;
4148;SDS011;2088;51.032;7.082;2023-02-03T06:36:59;5.20;;;1.80;;
4148;SDS011;2088;51.032;7.082;2023-02-03T06:39:26;6.00;;;1.93;;
4148;SDS011;2088;51.032;7.082;2023-02-03T06:41:53;8.07;;;2.07;;
4148;SDS011;2088;51.032;7.082;2023-02-03T06:44:20;5.47;;;1.70;;
4148;SDS011;2088;51.032;7.082;2023-02-03T06:46:49;3.77;;;1.63;;
4148;SDS011;2088;51.032;7.082;2023-02-03T06:49:16;7.10;;;1.40;;
4148;SDS011;2088;51.032;7.082;2023-02-03T06:51:43;10.43;;;1.63;;
4148;SDS011;2088;51.032;7.082;2023-02-03T06:54:10;9.80;;;1.23;;
4148;SDS011;2088;51.032;7.082;2023-02-03T06:56:37;7.70;;;2.33;;
4148;SDS011;2088;51.032;7.082;2023-02-03T06:59:05;10.60;;;1.67;;
4148;SDS011;2088;51.032;7.082;2023-02-03T07:01:32;4.93;;;1.80;;
4148;SDS011;2088;51.032;7.082;2023-02-03T07:04:01;9.13;;;2.23;;
4148;SDS011;2088;51.032;7.082;2023-02-03T07:06:28;1.93;;;1.40;;
4148;SDS011;2088;51.032;7.082;2023-02-03T07:08:58;7.80;;;2.10;;
4148;SDS011;2088;51.032;7.082;2023-02-03T07:11:25;10.17;;;2.10;;
4148;SDS011;2088;51.032;7.082;2023-02-03T07:13:52;7.33;;;3.00;;
4148;SDS011;2088;51.032;7.082;2023-02-03T07:16:19;2.43;;;1.37;;
4148;SDS011;2088;51.032;7.082;2023-02-03T07:18:46;3.50;;;1.13;;
4148;SDS011;2088;51.032;7.082;2023-02-03T07:21:15;3.10;;;1.70;;
4148;SDS011;2088;51.032;7.082;2023-02-03T07:23:45;4.60;;;1.40;;
4148;SDS011;2088;51.032;7.082;2023-02-03T07:26:12;6.60;;;1.90;;
4148;SDS011;2088;51.032;7.082;2023-02-03T07:28:39;6.03;;;2.20;;
4148;SDS011;2088;51.032;7.082;2023-02-03T07:31:06;4.27;;;1.57;;
4148;SDS011;2088;51.032;7.082;2023-02-03T07:33:34;5.83;;;1.80;;
4148;SDS011;2088;51.032;7.082;2023-02-03T07:36:01;10.33;;;2.00;;
4148;SDS011;2088;51.032;7.082;2023-02-03T07:38:29;3.77;;;2.00;;
4148;SDS011;2088;51.032;7.082;2023-02-03T07:40:57;4.50;;;1.23;;
4148;SDS011;2088;51.032;7.082;2023-02-03T07:43:24;8.90;;;1.90;;
4148;SDS011;2088;51.032;7.082;2023-02-03T07:45:51;4.60;;;1.73;;
4148;SDS011;2088;51.032;7.082;2023-02-03T07:48:18;4.83;;;1.67;;
4148;SDS011;2088;51.032;7.082;2023-02-03T07:50:46;8.30;;;1.47;;
4148;SDS011;2088;51.032;7.082;2023-02-03T07:53:14;6.90;;;1.97;;
4148;SDS011;2088;51.032;7.082;2023-02-03T07:55:43;3.80;;;1.57;;
4148;SDS011;2088;51.032;7.082;2023-02-03T07:58:10;3.03;;;1.63;;
4148;SDS011;2088;51.032;7.082;2023-02-03T08:00:37;7.30;;;2.33;;
4148;SDS011;2088;51.032;7.082;2023-02-03T08:03:04;8.90;;;1.97;;
4148;SDS011;2088;51.032;7.082;2023-02-03T08:05:31;11.20;;;1.67;;
4148;SDS011;2088;51.032;7.082;2023-02-03T08:07:58;6.20;;;1.70;;
4148;SDS011;2088;51.032;7.082;2023-02-03T08:10:25;7.70;;;1.70;;
4148;SDS011;2088;51.032;7.082;2023-02-03T08:12:53;3.87;;;3.00;;
4148;SDS011;2088;51.032;7.082;2023-02-03T08:15:21;5.60;;;1.70;;
4148;SDS011;2088;51.032;7.082;2023-02-03T08:17:48;7.57;;;1.50;;
4148;SDS011;2088;51.032;7.082;2023-02-03T08:20:15;3.33;;;1.70;;
4148;SDS011;2088;51.032;7.082;2023-02-03T08:22:43;8.37;;;1.70;;
4148;SDS011;2088;51.032;7.082;2023-02-03T08:25:10;4.33;;;1.40;;
4148;SDS011;2088;51.032;7.082;2023-02-03T08:27:37;5.17;;;1.20;;
4148;SDS011;2088;51.032;7.082;2023-02-03T08:30:07;5.03;;;2.13;;
4148;SDS011;2088;51.032;7.082;2023-02-03T08:32:35;5.90;;;2.30;;
4148;SDS011;2088;51.032;7.082;2023-02-03T08:35:02;2.00;;;1.33;;
4148;SDS011;2088;51.032;7.082;2023-02-03T08:37:29;2.43;;;1.60;;
4148;SDS011;2088;51.032;7.082;2023-02-03T08:39:56;7.30;;;3.13;;
4148;SDS011;2088;51.032;7.082;2023-02-03T08:42:24;4.60;;;2.20;;
4148;SDS011;2088;51.032;7.082;2023-02-03T08:44:51;5.30;;;1.90;;
4148;SDS011;2088;51.032;7.082;2023-02-03T08:47:19;2.90;;;1.63;;
4148;SDS011;2088;51.032;7.082;2023-02-03T08:49:46;3.07;;;1.70;;
4148;SDS011;2088;51.032;7.082;2023-02-03T08:52:13;1.67;;;1.10;;
4148;SDS011;2088;51.032;7.082;2023-02-03T08:54:40;1.70;;;1.33;;
4148;SDS011;2088;51.032;7.082;2023-02-03T08:57:08;3.93;;;1.60;;
4148;SDS011;2088;51.032;7.082;2023-02-03T08:59:36;4.10;;;1.60;;
4148;SDS011;2088;51.032;7.082;2023-02-03T09:02:05;3.27;;;1.97;;
4148;SDS011;2088;51.032;7.082;2023-02-03T09:04:35;6.63;;;1.37;;
4148;SDS011;2088;51.032;7.082;2023-02-03T09:07:02;4.60;;;2.13;;
4148;SDS011;2088;51.032;7.082;2023-02-03T09:09:30;2.40;;;1.67;;
4148;SDS011;2088;51.032;7.082;2023-02-03T09:11:57;2.40;;;1.70;;
4148;SDS011;2088;51.032;7.082;2023-02-03T09:14:29;4.40;;;1.87;;
4148;SDS011;2088;51.032;7.082;2023-02-03T09:16:57;6.10;;;1.97;;
4148;SDS011;2088;51.032;7.082;2023-02-03T09:19:24;4.80;;;2.13;;
4148;SDS011;2088;51.032;7.082;2023-02-03T09:21:52;6.20;;;1.60;;
4148;SDS011;2088;51.032;7.082;2023-02-03T09:24:21;6.30;;;1.50;;
4148;SDS011;2088;51.032;7.082;2023-02-03T09:26:48;3.00;;;2.00;;
4148;SDS011;2088;51.032;7.082;2023-02-03T09:29:15;5.87;;;1.97;;
4148;SDS011;2088;51.032;7.082;2023-02-03T09:31:43;2.40;;;1.50;;
4148;SDS011;2088;51.032;7.082;2023-02-03T09:34:12;6.23;;;2.40;;
4148;SDS011;2088;51.032;7.082;2023-02-03T09:36:39;8.80;;;3.00;;
4148;SDS011;2088;51.032;7.082;2023-02-03T09:39:07;12.27;;;1.77;;
4148;SDS011;2088;51.032;7.082;2023-02-03T09:41:39;2.37;;;1.63;;
4148;SDS011;2088;51.032;7.082;2023-02-03T09:44:11;8.77;;;2.20;;
4148;SDS011;2088;51.032;7.082;2023-02-03T09:46:39;3.97;;;2.00;;
4148;SDS011;2088;51.032;7.082;2023-02-03T09:49:10;3.13;;;2.37;;
4148;SDS011;2088;51.032;7.082;2023-02-03T09:51:39;3.73;;;1.83;;
4148;SDS011;2088;51.032;7.082;2023-02-03T09:54:12;2.70;;;1.70;;
4148;SDS011;2088;51.032;7.082;2023-02-03T09:56:42;5.63;;;1.80;;
4148;SDS011;2088;51.032;7.082;2023-02-03T09:59:14;4.40;;;2.30;;
4148;SDS011;2088;51.032;7.082;2023-02-03T10:01:42;4.10;;;1.53;;
4148;SDS011;2088;51.032;7.082;2023-02-03T10:04:14;4.73;;;2.10;;
4148;SDS011;2088;51.032;7.082;2023-02-03T10:06:46;8.33;;;2.60;;
4148;SDS011;2088;51.032;7.082;2023-02-03T10:09:18;5.80;;;2.53;;
4148;SDS011;2088;51.032;7.082;2023-02-03T10:11:52;4.80;;;2.30;;
4148;SDS011;2088;51.032;7.082;2023-02-03T10:14:28;10.20;;;2.97;;
4148;SDS011;2088;51.032;7.082;2023-02-03T10:17:02;7.00;;;3.23;;
4148;SDS011;2088;51.032;7.082;2023-02-03T10:19:36;5.10;;;2.73;;
4148;SDS011;2088;51.032;7.082;2023-02-03T10:22:04;4.17;;;2.60;;
4148;SDS011;2088;51.032;7.082;2023-02-03T10:24:36;9.07;;;2.57;;
4148;SDS011;2088;51.032;7.082;2023-02-03T10:27:04;5.37;;;2.40;;
4148;SDS011;2088;51.032;7.082;2023-02-03T10:29:33;3.77;;;2.93;;
4148;SDS011;2088;51.032;7.082;2023-02-03T10:32:01;6.57;;;2.70;;
4148;SDS011;2088;51.032;7.082;2023-02-03T10:34:28;3.20;;;2.90;;
4148;SDS011;2088;51.032;7.082;2023-02-03T10:36:56;6.33;;;2.50;;
4148;SDS011;2088;51.032;7.082;2023-02-03T10:39:29;5.57;;;2.63;;
4148;SDS011;2088;51.032;7.082;2023-02-03T10:41:59;7.63;;;2.90;;
4148;SDS011;2088;51.032;7.082;2023-02-03T10:44:30;6.93;;;2.60;;
4148;SDS011;2088;51.032;7.082;2023-02-03T10:46:59;11.73;;;2.57;;
4148;SDS011;2088;51.032;7.082;2023-02-03T10:49:26;6.53;;;3.10;;
4148;SDS011;2088;51.032;7.082;2023-02-03T10:51:54;11.20;;;2.10;;
4148;SDS011;2088;51.032;7.082;2023-02-03T10:54:27;12.00;;;2.90;;
4148;SDS011;2088;51.032;7.082;2023-02-03T10:56:56;7.13;;;2.80;;
4148;SDS011;2088;51.032;7.082;2023-02-03T10:59:29;6.60;;;2.37;;
4148;SDS011;2088;51.032;7.082;2023-02-03T11:01:56;3.80;;;2.60;;
4148;SDS011;2088;51.032;7.082;2023-02-03T11:04:24;3.67;;;2.70;;
4148;SDS011;2088;51.032;7.082;2023-02-03T11:06:55;6.80;;;3.83;;
4148;SDS011;2088;51.032;7.082;2023-02-03T11:09:27;5.27;;;3.40;;
4148;SDS011;2088;51.032;7.082;2023-02-03T11:12:02;5.67;;;4.00;;
4148;SDS011;2088;51.032;7.082;2023-02-03T11:14:36;11.87;;;3.67;;
4148;SDS011;2088;51.032;7.082;2023-02-03T11:17:06;11.13;;;3.50;;
4148;SDS011;2088;51.032;7.082;2023-02-03T11:19:35;6.07;;;3.10;;
4148;SDS011;2088;51.032;7.082;2023-02-03T11:22:03;10.17;;;4.03;;
4148;SDS011;2088;51.032;7.082;2023-02-03T11:24:31;7.60;;;4.43;;
4148;SDS011;2088;51.032;7.082;2023-02-03T11:26:59;6.63;;;4.37;;
4148;SDS011;2088;51.032;7.082;2023-02-03T11:29:29;7.73;;;4.53;;
4148;SDS011;2088;51.032;7.082;2023-02-03T11:32:00;18.33;;;4.40;;
4148;SDS011;2088;51.032;7.082;2023-02-03T11:34:28;10.00;;;4.33;;
4148;SDS011;2088;51.032;7.082;2023-02-03T11:36:57;8.00;;;5.00;;
4148;SDS011;2088;51.032;7.082;2023-02-03T11:39:35;6.10;;;3.70;;
4148;SDS011;2088;51.032;7.082;2023-02-03T11:42:08;9.63;;;4.07;;
4148;SDS011;2088;51.032;7.082;2023-02-03T11:44:46;13.60;;;5.40;;
4148;SDS011;2088;51.032;7.082;2023-02-03T11:47:15;7.27;;;4.93;;
4148;SDS011;2088;51.032;7.082;2023-02-03T11:49:47;9.67;;;5.83;;
4148;SDS011;2088;51.032;7.082;2023-02-03T11:52:20;10.10;;;5.47;;
4148;SDS011;2088;51.032;7.082;2023-02-03T11:54:53;9.87;;;5.33;;
4148;SDS011;2088;51.032;7.082;2023-02-03T11:57:25;9.10;;;5.63;;
4148;SDS011;2088;51.032;7.082;2023-02-03T11:59:59;8.33;;;5.97;;
4148;SDS011;2088;51.032;7.082;2023-02-03T12:02:34;8.10;;;5.57;;
4148;SDS011;2088;51.032;7.082;2023-02-03T12:05:09;16.60;;;6.50;;
4148;SDS011;2088;51.032;7.082;2023-02-03T12:07:48;10.60;;;7.10;;
4148;SDS011;2088;51.032;7.082;2023-02-03T12:10:27;10.00;;;6.83;;
4148;SDS011;2088;51.032;7.082;2023-02-03T12:12:59;18.17;;;7.00;;
4148;SDS011;2088;51.032;7.082;2023-02-03T12:15:41;13.17;;;7.53;;
4148;SDS011;2088;51.032;7.082;2023-02-03T12:18:21;10.87;;;6.70;;
4148;SDS011;2088;51.032;7.082;2023-02-03T12:20:56;18.30;;;7.87;;
4148;SDS011;2088;51.032;7.082;2023-02-03T12:23:29;21.60;;;7.90;;
4148;SDS011;2088;51.032;7.082;2023-02-03T12:26:01;16.97;;;8.40;;
4148;SDS011;2088;51.032;7.082;2023-02-03T12:28:34;13.00;;;7.30;;
4148;SDS011;2088;51.032;7.082;2023-02-03T12:31:07;19.13;;;8.50;;
4148;SDS011;2088;51.032;7.082;2023-02-03T12:33:37;14.90;;;8.23;;
4148;SDS011;2088;51.032;7.082;2023-02-03T12:36:08;11.63;;;6.53;;
4148;SDS011;2088;51.032;7.082;2023-02-03T12:38:38;9.50;;;6.00;;
4148;SDS011;2088;51.032;7.082;2023-02-03T12:41:07;11.70;;;6.50;;
4148;SDS011;2088;51.032;7.082;2023-02-03T12:43:37;12.13;;;7.83;;
4148;SDS011;2088;51.032;7.082;2023-02-03T12:46:06;12.70;;;7.30;;
4148;SDS011;2088;51.032;7.082;2023-02-03T12:48:41;18.93;;;8.37;;
4148;SDS011;2088;51.032;7.082;2023-02-03T12:51:09;12.07;;;6.50;;
4148;SDS011;2088;51.032;7.082;2023-02-03T12:53:38;15.03;;;9.03;;
4148;SDS011;2088;51.032;7.082;2023-02-03T12:56:07;17.13;;;7.40;;
4148;SDS011;2088;51.032;7.082;2023-02-03T12:58:35;16.07;;;8.00;;
4148;SDS011;2088;51.032;7.082;2023-02-03T13:01:05;10.27;;;6.80;;
4148;SDS011;2088;51.032;7.082;2023-02-03T13:03:34;10.43;;;6.87;;
4148;SDS011;2088;51.032;7.082;2023-02-03T13:06:05;12.07;;;7.03;;
4148;SDS011;2088;51.032;7.082;2023-02-03T13:08:35;13.77;;;8.63;;
4148;SDS011;2088;51.032;7.082;2023-02-03T13:11:07;11.77;;;7.63;;
4148;SDS011;2088;51.032;7.082;2023-02-03T13:13:38;15.40;;;7.97;;
4148;SDS011;2088;51.032;7.082;2023-02-03T13:16:06;13.03;;;6.97;;
4148;SDS011;2088;51.032;7.082;2023-02-03T13:18:35;27.77;;;7.60;;
4148;SDS011;2088;51.032;7.082;2023-02-03T13:37:40;12.37;;;7.17;;
4148;SDS011;2088;51.032;7.082;2023-02-03T13:40:12;15.93;;;6.13;;
4148;SDS011;2088;51.032;7.082;2023-02-03T13:42:42;15.73;;;6.20;;
4148;SDS011;2088;51.032;7.082;2023-02-03T13:45:12;6.87;;;5.30;;
4148;SDS011;2088;51.032;7.082;2023-02-03T13:47:44;9.10;;;5.63;;
4148;SDS011;2088;51.032;7.082;2023-02-03T13:50:16;10.60;;;5.70;;
4148;SDS011;2088;51.032;7.082;2023-02-03T13:52:51;16.83;;;5.23;;
4148;SDS011;2088;51.032;7.082;2023-02-03T13:55:24;7.63;;;5.47;;
4148;SDS011;2088;51.032;7.082;2023-02-03T13:57:53;7.50;;;4.87;;
4148;SDS011;2088;51.032;7.082;2023-02-03T14:03:10;14.67;;;5.20;;
4148;SDS011;2088;51.032;7.082;2023-02-03T14:05:42;9.33;;;5.63;;
4148;SDS011;2088;51.032;7.082;2023-02-03T14:13:57;9.23;;;4.67;;
4148;SDS011;2088;51.032;7.082;2023-02-03T14:16:25;6.60;;;3.87;;
4148;SDS011;2088;51.032;7.082;2023-02-03T14:18:53;6.50;;;3.77;;
4148;SDS011;2088;51.032;7.082;2023-02-03T14:21:21;11.90;;;4.30;;
4148;SDS011;2088;51.032;7.082;2023-02-03T14:23:51;11.73;;;3.43;;
4148;SDS011;2088;51.032;7.082;2023-02-03T14:26:29;9.97;;;4.63;;
4148;SDS011;2088;51.032;7.082;2023-02-03T14:28:59;10.07;;;4.00;;
4148;SDS011;2088;51.032;7.082;2023-02-03T14:31:27;23.33;;;3.97;;
4148;SDS011;2088;51.032;7.082;2023-02-03T14:33:55;15.50;;;3.97;;
4148;SDS011;2088;51.032;7.082;2023-02-03T14:36:29;17.23;;;5.23;;
4148;SDS011;2088;51.032;7.082;2023-02-03T14:38:59;7.07;;;3.60;;
4148;SDS011;2088;51.032;7.082;2023-02-03T14:41:28;7.03;;;3.90;;
4148;SDS011;2088;51.032;7.082;2023-02-03T14:44:00;8.20;;;3.00;;
4148;SDS011;2088;51.032;7.082;2023-02-03T14:46:33;10.73;;;3.10;;
4148;SDS011;2088;51.032;7.082;2023-02-03T14:52:03;7.10;;;3.10;;
4148;SDS011;2088;51.032;7.082;2023-02-03T14:54:38;6.60;;;3.30;;
4148;SDS011;2088;51.032;7.082;2023-02-03T14:57:11;12.00;;;4.07;;
4148;SDS011;2088;51.032;7.082;2023-02-03T14:59:45;10.90;;;3.80;;
4148;SDS011;2088;51.032;7.082;2023-02-03T15:02:14;8.90;;;4.33;;
4148;SDS011;2088;51.032;7.082;2023-02-03T15:04:43;10.17;;;3.60;;
4148;SDS011;2088;51.032;7.082;2023-02-03T15:09:52;5.83;;;2.93;;
4148;SDS011;2088;51.032;7.082;2023-02-03T15:12:21;3.73;;;3.13;;
4148;SDS011;2088;51.032;7.082;2023-02-03T15:14:51;12.73;;;3.30;;
4148;SDS011;2088;51.032;7.082;2023-02-03T15:17:20;4.83;;;2.93;;
4148;SDS011;2088;51.032;7.082;2023-02-03T15:19:48;14.57;;;3.03;;
4148;SDS011;2088;51.032;7.082;2023-02-03T15:22:20;6.80;;;3.30;;
4148;SDS011;2088;51.032;7.082;2023-02-03T15:24:47;12.10;;;4.20;;
4148;SDS011;2088;51.032;7.082;2023-02-03T15:27:21;12.70;;;3.80;;
4148;SDS011;2088;51.032;7.082;2023-02-03T15:29:48;17.40;;;5.97;;
4148;SDS011;2088;51.032;7.082;2023-02-03T15:32:17;6.20;;;3.60;;
4148;SDS011;2088;51.032;7.082;2023-02-03T15:34:46;15.07;;;3.97;;
4148;SDS011;2088;51.032;7.082;2023-02-03T15:37:16;7.70;;;2.87;;
4148;SDS011;2088;51.032;7.082;2023-02-03T15:39:45;7.57;;;3.73;;
4148;SDS011;2088;51.032;7.082;2023-02-03T15:42:16;8.57;;;4.00;;
4148;SDS011;2088;51.032;7.082;2023-02-03T15:44:46;7.10;;;3.60;;
4148;SDS011;2088;51.032;7.082;2023-02-03T15:47:19;7.43;;;3.17;;
4148;SDS011;2088;51.032;7.082;2023-02-03T15:49:50;13.13;;;6.33;;
4148;SDS011;2088;51.032;7.082;2023-02-03T15:52:19;12.70;;;4.63;;
4148;SDS011;2088;51.032;7.082;2023-02-03T15:54:49;10.60;;;2.40;;
4148;SDS011;2088;51.032;7.082;2023-02-03T15:57:19;7.80;;;3.00;;